sensor_id;sensor_type;location;lat;lon;timestamp;temperature;humidity
8684;DHT22;4379;59.744;18.206;2022-09-28T00:01:19;9.10;99.90
8684;DHT22;4379;59.744;18.206;2022-09-28T00:03:49;9.20;99.90
8684;DHT22;4379;59.744;18.206;2022-09-28T00:06:18;9.00;99.90
8684;DHT22;4379;59.744;18.206;2022-09-28T00:08:47;9.00;99.90
8684;DHT22;4379;59.744;18.206;2022-09-28T00:11:17;8.90;99.90
8684;DHT22;4379;59.744;18.206;2022-09-28T00:13:48;8.90;99.90
8684;DHT22;4379;59.744;18.206;2022-09-28T00:16:19;8.90;99.90
8684;DHT22;4379;59.744;18.206;2022-09-28T00:18:47;9.00;99.90
8684;DHT22;4379;59.744;18.206;2022-09-28T00:21:19;9.00;99.90
8684;DHT22;4379;59.744;18.206;2022-09-28T00:23:54;8.90;99.90
8684;DHT22;4379;59.744;18.206;2022-09-28T00:26:47;9.00;99.90
8684;DHT22;4379;59.744;18.206;2022-09-28T00:31:58;9.00;99.90
8684;DHT22;4379;59.744;18.206;2022-09-28T00:34:34;9.00;99.90
8684;DHT22;4379;59.744;18.206;2022-09-28T00:37:03;9.00;99.90
8684;DHT22;4379;59.744;18.206;2022-09-28T00:39:31;9.00;99.90
8684;DHT22;4379;59.744;18.206;2022-09-28T00:41:58;9.00;99.90
8684;DHT22;4379;59.744;18.206;2022-09-28T00:47:02;9.10;99.90
8684;DHT22;4379;59.744;18.206;2022-09-28T00:52:14;9.20;99.90
8684;DHT22;4379;59.744;18.206;2022-09-28T00:54:46;9.10;99.90
8684;DHT22;4379;59.744;18.206;2022-09-28T00:57:14;9.10;99.90
8684;DHT22;4379;59.744;18.206;2022-09-28T00:59:43;9.10;99.90
8684;DHT22;4379;59.744;18.206;2022-09-28T01:02:10;9.30;99.90
8684;DHT22;4379;59.744;18.206;2022-09-28T01:04:38;9.30;99.90
8684;DHT22;4379;59.744;18.206;2022-09-28T01:07:06;9.20;99.90
8684;DHT22;4379;59.744;18.206;2022-09-28T01:09:37;9.10;99.90
8684;DHT22;4379;59.744;18.206;2022-09-28T01:12:06;9.20;99.90
8684;DHT22;4379;59.744;18.206;2022-09-28T01:14:34;9.20;99.90
8684;DHT22;4379;59.744;18.206;2022-09-28T01:28:14;9.10;99.90
8684;DHT22;4379;59.744;18.206;2022-09-28T01:30:50;9.00;99.90
8684;DHT22;4379;59.744;18.206;2022-09-28T01:33:23;9.10;99.90
8684;DHT22;4379;59.744;18.206;2022-09-28T01:35:58;9.00;99.90
8684;DHT22;4379;59.744;18.206;2022-09-28T01:38:36;9.00;99.90
8684;DHT22;4379;59.744;18.206;2022-09-28T01:41:04;9.00;99.90
8684;DHT22;4379;59.744;18.206;2022-09-28T01:43:37;9.10;99.90
8684;DHT22;4379;59.744;18.206;2022-09-28T01:46:21;9.00;99.90
8684;DHT22;4379;59.744;18.206;2022-09-28T01:48:57;9.10;99.90
8684;DHT22;4379;59.744;18.206;2022-09-28T01:54:11;9.20;99.90
8684;DHT22;4379;59.744;18.206;2022-09-28T01:56:47;9.30;99.90
8684;DHT22;4379;59.744;18.206;2022-09-28T01:59:18;9.40;99.90
8684;DHT22;4379;59.744;18.206;2022-09-28T02:02:02;9.50;99.90
8684;DHT22;4379;59.744;18.206;2022-09-28T02:05:04;9.50;99.90
8684;DHT22;4379;59.744;18.206;2022-09-28T02:07:55;9.60;99.90
8684;DHT22;4379;59.744;18.206;2022-09-28T02:10:27;9.60;99.90
8684;DHT22;4379;59.744;18.206;2022-09-28T02:13:08;9.60;99.90
8684;DHT22;4379;59.744;18.206;2022-09-28T02:15:50;9.70;99.90
8684;DHT22;4379;59.744;18.206;2022-09-28T02:18:19;9.70;99.90
8684;DHT22;4379;59.744;18.206;2022-09-28T02:20:55;9.70;99.90
8684;DHT22;4379;59.744;18.206;2022-09-28T02:23:26;9.80;99.90
8684;DHT22;4379;59.744;18.206;2022-09-28T02:26:04;9.80;99.90
8684;DHT22;4379;59.744;18.206;2022-09-28T02:28:32;9.80;99.90
8684;DHT22;4379;59.744;18.206;2022-09-28T02:30:59;9.90;99.90
8684;DHT22;4379;59.744;18.206;2022-09-28T02:33:35;9.90;99.90
8684;DHT22;4379;59.744;18.206;2022-09-28T02:36:03;9.90;99.90
8684;DHT22;4379;59.744;18.206;2022-09-28T02:38:31;9.90;99.90
8684;DHT22;4379;59.744;18.206;2022-09-28T02:41:31;9.90;99.90
8684;DHT22;4379;59.744;18.206;2022-09-28T02:46:58;10.00;99.90
8684;DHT22;4379;59.744;18.206;2022-09-28T02:49:49;10.10;99.90
8684;DHT22;4379;59.744;18.206;2022-09-28T02:55:38;10.20;99.90
8684;DHT22;4379;59.744;18.206;2022-09-28T03:01:27;10.20;99.90
8684;DHT22;4379;59.744;18.206;2022-09-28T03:04:11;10.20;99.90
8684;DHT22;4379;59.744;18.206;2022-09-28T03:06:50;10.20;99.90
8684;DHT22;4379;59.744;18.206;2022-09-28T03:09:44;10.20;99.90
8684;DHT22;4379;59.744;18.206;2022-09-28T03:12:17;10.20;99.90
8684;DHT22;4379;59.744;18.206;2022-09-28T03:14:46;10.20;99.90
8684;DHT22;4379;59.744;18.206;2022-09-28T03:17:13;10.30;99.90
8684;DHT22;4379;59.744;18.206;2022-09-28T03:19:40;10.40;99.90
8684;DHT22;4379;59.744;18.206;2022-09-28T03:22:07;10.40;99.90
8684;DHT22;4379;59.744;18.206;2022-09-28T03:24:34;10.40;99.90
8684;DHT22;4379;59.744;18.206;2022-09-28T03:27:01;10.50;99.90
8684;DHT22;4379;59.744;18.206;2022-09-28T03:29:29;10.50;99.90
8684;DHT22;4379;59.744;18.206;2022-09-28T03:31:58;10.60;99.90
8684;DHT22;4379;59.744;18.206;2022-09-28T03:34:26;10.50;99.90
8684;DHT22;4379;59.744;18.206;2022-09-28T03:36:53;10.60;99.90
8684;DHT22;4379;59.744;18.206;2022-09-28T03:39:20;10.60;99.90
8684;DHT22;4379;59.744;18.206;2022-09-28T03:41:47;10.60;99.90
8684;DHT22;4379;59.744;18.206;2022-09-28T03:44:14;10.60;99.90
8684;DHT22;4379;59.744;18.206;2022-09-28T03:46:41;10.70;99.90
8684;DHT22;4379;59.744;18.206;2022-09-28T03:49:09;10.80;99.90
8684;DHT22;4379;59.744;18.206;2022-09-28T03:51:36;10.90;99.90
8684;DHT22;4379;59.744;18.206;2022-09-28T03:54:04;10.90;99.90
8684;DHT22;4379;59.744;18.206;2022-09-28T03:56:31;10.90;99.90
8684;DHT22;4379;59.744;18.206;2022-09-28T03:58:58;10.90;99.90
8684;DHT22;4379;59.744;18.206;2022-09-28T04:01:28;10.90;99.90
8684;DHT22;4379;59.744;18.206;2022-09-28T04:03:55;11.00;99.90
8684;DHT22;4379;59.744;18.206;2022-09-28T04:06:23;10.90;99.90
8684;DHT22;4379;59.744;18.206;2022-09-28T04:08:50;11.00;99.90
8684;DHT22;4379;59.744;18.206;2022-09-28T04:11:18;11.00;99.90
8684;DHT22;4379;59.744;18.206;2022-09-28T04:13:47;11.00;99.90
8684;DHT22;4379;59.744;18.206;2022-09-28T04:16:15;11.00;99.90
8684;DHT22;4379;59.744;18.206;2022-09-28T04:18:43;11.00;99.90
8684;DHT22;4379;59.744;18.206;2022-09-28T04:21:12;11.00;99.90
8684;DHT22;4379;59.744;18.206;2022-09-28T04:23:39;10.90;99.90
8684;DHT22;4379;59.744;18.206;2022-09-28T04:26:13;11.00;99.90
8684;DHT22;4379;59.744;18.206;2022-09-28T04:28:43;11.00;99.90
8684;DHT22;4379;59.744;18.206;2022-09-28T04:34:11;11.00;99.90
8684;DHT22;4379;59.744;18.206;2022-09-28T04:36:39;11.10;99.90
8684;DHT22;4379;59.744;18.206;2022-09-28T04:39:07;11.10;99.90
8684;DHT22;4379;59.744;18.206;2022-09-28T04:41:34;11.10;99.90
8684;DHT22;4379;59.744;18.206;2022-09-28T04:44:01;11.10;99.90
8684;DHT22;4379;59.744;18.206;2022-09-28T04:46:28;11.10;99.90
8684;DHT22;4379;59.744;18.206;2022-09-28T04:48:56;11.10;99.90
8684;DHT22;4379;59.744;18.206;2022-09-28T04:51:23;11.10;99.90
8684;DHT22;4379;59.744;18.206;2022-09-28T04:53:50;11.10;99.90
8684;DHT22;4379;59.744;18.206;2022-09-28T04:56:18;11.20;99.90
8684;DHT22;4379;59.744;18.206;2022-09-28T04:58:45;11.10;99.90
8684;DHT22;4379;59.744;18.206;2022-09-28T05:01:18;11.10;99.90
8684;DHT22;4379;59.744;18.206;2022-09-28T05:03:49;11.10;99.90
8684;DHT22;4379;59.744;18.206;2022-09-28T05:06:17;11.10;99.90
8684;DHT22;4379;59.744;18.206;2022-09-28T05:08:44;11.00;99.90
8684;DHT22;4379;59.744;18.206;2022-09-28T05:11:13;11.10;99.90
8684;DHT22;4379;59.744;18.206;2022-09-28T05:13:43;11.10;99.90
8684;DHT22;4379;59.744;18.206;2022-09-28T05:16:13;11.10;99.90
8684;DHT22;4379;59.744;18.206;2022-09-28T05:18:42;11.10;99.90
8684;DHT22;4379;59.744;18.206;2022-09-28T05:21:10;11.10;99.90
8684;DHT22;4379;59.744;18.206;2022-09-28T05:23:39;11.20;99.90
8684;DHT22;4379;59.744;18.206;2022-09-28T05:26:06;11.20;99.90
8684;DHT22;4379;59.744;18.206;2022-09-28T05:28:33;11.30;99.90
8684;DHT22;4379;59.744;18.206;2022-09-28T05:31:03;11.30;99.90
8684;DHT22;4379;59.744;18.206;2022-09-28T05:33:31;11.30;99.90
8684;DHT22;4379;59.744;18.206;2022-09-28T05:35:59;11.20;99.90
8684;DHT22;4379;59.744;18.206;2022-09-28T05:38:28;11.20;99.90
8684;DHT22;4379;59.744;18.206;2022-09-28T05:40:55;11.30;99.90
8684;DHT22;4379;59.744;18.206;2022-09-28T05:43:23;11.40;99.90
8684;DHT22;4379;59.744;18.206;2022-09-28T05:45:50;11.40;99.90
8684;DHT22;4379;59.744;18.206;2022-09-28T05:48:22;11.40;99.90
8684;DHT22;4379;59.744;18.206;2022-09-28T05:50:50;11.40;99.90
8684;DHT22;4379;59.744;18.206;2022-09-28T05:53:18;11.40;99.90
8684;DHT22;4379;59.744;18.206;2022-09-28T05:55:46;11.50;99.90
8684;DHT22;4379;59.744;18.206;2022-09-28T05:58:14;11.60;99.90
8684;DHT22;4379;59.744;18.206;2022-09-28T06:00:42;11.60;99.90
8684;DHT22;4379;59.744;18.206;2022-09-28T06:03:12;11.60;99.90
8684;DHT22;4379;59.744;18.206;2022-09-28T06:05:40;11.70;99.90
8684;DHT22;4379;59.744;18.206;2022-09-28T06:08:08;11.70;99.90
8684;DHT22;4379;59.744;18.206;2022-09-28T06:10:39;11.80;99.90
8684;DHT22;4379;59.744;18.206;2022-09-28T06:13:07;11.70;99.90
8684;DHT22;4379;59.744;18.206;2022-09-28T06:15:35;11.80;99.90
8684;DHT22;4379;59.744;18.206;2022-09-28T06:18:10;12.00;99.90
8684;DHT22;4379;59.744;18.206;2022-09-28T06:20:40;12.10;99.90
8684;DHT22;4379;59.744;18.206;2022-09-28T06:23:08;12.10;99.90
8684;DHT22;4379;59.744;18.206;2022-09-28T06:25:36;12.20;99.90
8684;DHT22;4379;59.744;18.206;2022-09-28T06:30:34;12.20;99.90
8684;DHT22;4379;59.744;18.206;2022-09-28T06:33:02;12.20;99.90
8684;DHT22;4379;59.744;18.206;2022-09-28T06:35:30;12.20;99.90
8684;DHT22;4379;59.744;18.206;2022-09-28T06:37:58;12.10;99.90
8684;DHT22;4379;59.744;18.206;2022-09-28T06:40:26;12.30;99.90
8684;DHT22;4379;59.744;18.206;2022-09-28T06:43:04;12.50;99.90
8684;DHT22;4379;59.744;18.206;2022-09-28T06:45:41;12.70;99.90
8684;DHT22;4379;59.744;18.206;2022-09-28T06:48:10;12.50;99.90
8684;DHT22;4379;59.744;18.206;2022-09-28T06:50:39;12.50;99.90
8684;DHT22;4379;59.744;18.206;2022-09-28T06:53:09;12.70;99.90
8684;DHT22;4379;59.744;18.206;2022-09-28T06:55:41;12.60;99.90
8684;DHT22;4379;59.744;18.206;2022-09-28T06:58:13;12.80;99.90
8684;DHT22;4379;59.744;18.206;2022-09-28T07:00:41;12.80;99.90
8684;DHT22;4379;59.744;18.206;2022-09-28T07:03:14;12.90;99.90
8684;DHT22;4379;59.744;18.206;2022-09-28T07:05:49;12.70;99.90
8684;DHT22;4379;59.744;18.206;2022-09-28T07:08:17;12.70;99.90
8684;DHT22;4379;59.744;18.206;2022-09-28T07:10:47;13.10;99.90
8684;DHT22;4379;59.744;18.206;2022-09-28T07:13:16;13.20;99.90
8684;DHT22;4379;59.744;18.206;2022-09-28T07:16:03;13.00;99.90
8684;DHT22;4379;59.744;18.206;2022-09-28T07:18:30;13.20;99.90
8684;DHT22;4379;59.744;18.206;2022-09-28T07:20:58;13.20;99.90
8684;DHT22;4379;59.744;18.206;2022-09-28T07:23:26;13.20;99.90
8684;DHT22;4379;59.744;18.206;2022-09-28T07:25:56;13.00;99.90
8684;DHT22;4379;59.744;18.206;2022-09-28T07:28:24;13.10;99.90
8684;DHT22;4379;59.744;18.206;2022-09-28T07:30:51;13.10;99.90
8684;DHT22;4379;59.744;18.206;2022-09-28T07:33:18;13.10;99.90
8684;DHT22;4379;59.744;18.206;2022-09-28T07:35:50;13.30;99.90
8684;DHT22;4379;59.744;18.206;2022-09-28T07:38:18;13.20;99.90
8684;DHT22;4379;59.744;18.206;2022-09-28T07:40:45;13.30;99.90
8684;DHT22;4379;59.744;18.206;2022-09-28T07:43:31;13.20;99.90
8684;DHT22;4379;59.744;18.206;2022-09-28T07:45:59;13.30;99.90
8684;DHT22;4379;59.744;18.206;2022-09-28T07:48:26;13.40;99.90
8684;DHT22;4379;59.744;18.206;2022-09-28T07:50:55;13.90;99.90
8684;DHT22;4379;59.744;18.206;2022-09-28T07:53:24;14.40;99.90
8684;DHT22;4379;59.744;18.206;2022-09-28T07:55:59;14.80;99.90
8684;DHT22;4379;59.744;18.206;2022-09-28T07:58:37;15.10;99.90
8684;DHT22;4379;59.744;18.206;2022-09-28T08:01:07;14.60;99.90
8684;DHT22;4379;59.744;18.206;2022-09-28T08:03:35;14.60;99.90
8684;DHT22;4379;59.744;18.206;2022-09-28T08:06:05;14.70;99.90
8684;DHT22;4379;59.744;18.206;2022-09-28T08:08:33;14.30;99.90
8684;DHT22;4379;59.744;18.206;2022-09-28T08:11:02;14.10;99.90
8684;DHT22;4379;59.744;18.206;2022-09-28T08:13:31;13.80;99.90
8684;DHT22;4379;59.744;18.206;2022-09-28T08:16:02;13.60;99.90
8684;DHT22;4379;59.744;18.206;2022-09-28T08:18:30;13.50;99.90
8684;DHT22;4379;59.744;18.206;2022-09-28T08:20:58;13.50;99.90
8684;DHT22;4379;59.744;18.206;2022-09-28T08:23:43;13.70;99.90
8684;DHT22;4379;59.744;18.206;2022-09-28T08:26:11;14.00;99.90
8684;DHT22;4379;59.744;18.206;2022-09-28T08:28:42;14.00;99.90
8684;DHT22;4379;59.744;18.206;2022-09-28T08:31:11;14.20;99.90
8684;DHT22;4379;59.744;18.206;2022-09-28T08:33:38;13.70;99.90
8684;DHT22;4379;59.744;18.206;2022-09-28T08:36:06;13.60;99.90
8684;DHT22;4379;59.744;18.206;2022-09-28T08:38:33;13.70;99.90
8684;DHT22;4379;59.744;18.206;2022-09-28T08:46:17;13.80;99.90
8684;DHT22;4379;59.744;18.206;2022-09-28T08:49:08;13.60;99.90
8684;DHT22;4379;59.744;18.206;2022-09-28T08:52:00;13.40;99.90
8684;DHT22;4379;59.744;18.206;2022-09-28T08:59:54;13.90;99.90
8684;DHT22;4379;59.744;18.206;2022-09-28T09:02:31;13.70;99.90
8684;DHT22;4379;59.744;18.206;2022-09-28T09:05:02;13.70;99.90
8684;DHT22;4379;59.744;18.206;2022-09-28T09:07:56;13.40;99.90
8684;DHT22;4379;59.744;18.206;2022-09-28T09:24:24;13.70;99.90
8684;DHT22;4379;59.744;18.206;2022-09-28T09:47:02;12.40;99.90
8684;DHT22;4379;59.744;18.206;2022-09-28T09:49:44;12.60;99.90
8684;DHT22;4379;59.744;18.206;2022-09-28T09:52:29;12.80;99.90
8684;DHT22;4379;59.744;18.206;2022-09-28T09:57:37;13.20;99.90
8684;DHT22;4379;59.744;18.206;2022-09-28T10:00:13;13.20;99.90
8684;DHT22;4379;59.744;18.206;2022-09-28T10:02:42;13.00;99.90
8684;DHT22;4379;59.744;18.206;2022-09-28T10:07:43;13.20;99.90
8684;DHT22;4379;59.744;18.206;2022-09-28T10:10:32;13.30;99.90
8684;DHT22;4379;59.744;18.206;2022-09-28T10:13:00;13.00;99.90
8684;DHT22;4379;59.744;18.206;2022-09-28T10:15:30;12.90;99.90
8684;DHT22;4379;59.744;18.206;2022-09-28T10:18:01;12.80;99.90
8684;DHT22;4379;59.744;18.206;2022-09-28T10:20:33;12.60;99.90
8684;DHT22;4379;59.744;18.206;2022-09-28T10:23:04;12.30;99.90
8684;DHT22;4379;59.744;18.206;2022-09-28T10:25:36;12.20;99.90
8684;DHT22;4379;59.744;18.206;2022-09-28T10:28:16;12.10;99.90
8684;DHT22;4379;59.744;18.206;2022-09-28T10:30:45;12.20;99.90
8684;DHT22;4379;59.744;18.206;2022-09-28T10:33:32;12.00;99.90
8684;DHT22;4379;59.744;18.206;2022-09-28T10:36:00;12.10;99.90
8684;DHT22;4379;59.744;18.206;2022-09-28T10:38:31;12.20;99.90
8684;DHT22;4379;59.744;18.206;2022-09-28T10:41:09;12.10;99.90
8684;DHT22;4379;59.744;18.206;2022-09-28T10:43:46;12.20;99.90
8684;DHT22;4379;59.744;18.206;2022-09-28T10:46:21;12.20;99.90
8684;DHT22;4379;59.744;18.206;2022-09-28T10:49:15;12.10;99.90
8684;DHT22;4379;59.744;18.206;2022-09-28T10:51:45;12.00;99.90
8684;DHT22;4379;59.744;18.206;2022-09-28T10:54:18;12.00;99.90
8684;DHT22;4379;59.744;18.206;2022-09-28T10:56:47;12.00;99.90
8684;DHT22;4379;59.744;18.206;2022-09-28T11:04:42;13.10;99.90
8684;DHT22;4379;59.744;18.206;2022-09-28T11:07:21;13.50;99.90
8684;DHT22;4379;59.744;18.206;2022-09-28T11:09:51;13.90;99.90
8684;DHT22;4379;59.744;18.206;2022-09-28T11:12:24;14.00;99.90
8684;DHT22;4379;59.744;18.206;2022-09-28T11:14:59;14.20;99.90
8684;DHT22;4379;59.744;18.206;2022-09-28T11:17:37;14.10;99.90
8684;DHT22;4379;59.744;18.206;2022-09-28T11:22:57;14.40;99.90
8684;DHT22;4379;59.744;18.206;2022-09-28T11:25:27;14.60;99.90
8684;DHT22;4379;59.744;18.206;2022-09-28T11:27:57;14.40;99.90
8684;DHT22;4379;59.744;18.206;2022-09-28T11:33:08;14.20;99.90
8684;DHT22;4379;59.744;18.206;2022-09-28T11:41:46;14.30;99.90
8684;DHT22;4379;59.744;18.206;2022-09-28T11:49:55;14.70;99.90
8684;DHT22;4379;59.744;18.206;2022-09-28T11:57:49;13.50;99.90
8684;DHT22;4379;59.744;18.206;2022-09-28T12:00:20;13.50;99.90
8684;DHT22;4379;59.744;18.206;2022-09-28T12:02:52;13.50;99.90
8684;DHT22;4379;59.744;18.206;2022-09-28T12:08:07;13.30;99.90
8684;DHT22;4379;59.744;18.206;2022-09-28T12:10:39;13.30;99.90
8684;DHT22;4379;59.744;18.206;2022-09-28T12:13:15;13.20;99.90
8684;DHT22;4379;59.744;18.206;2022-09-28T12:15:57;13.30;99.90
8684;DHT22;4379;59.744;18.206;2022-09-28T12:19:03;13.00;99.90
8684;DHT22;4379;59.744;18.206;2022-09-28T12:21:41;13.20;99.90
8684;DHT22;4379;59.744;18.206;2022-09-28T12:24:21;13.30;99.90
8684;DHT22;4379;59.744;18.206;2022-09-28T12:27:44;12.90;99.90
8684;DHT22;4379;59.744;18.206;2022-09-28T12:30:00;12.90;99.90
8684;DHT22;4379;59.744;18.206;2022-09-28T12:40:56;13.00;99.90
8684;DHT22;4379;59.744;18.206;2022-09-28T12:43:58;13.00;99.90
8684;DHT22;4379;59.744;18.206;2022-09-28T12:57:58;13.30;99.90
8684;DHT22;4379;59.744;18.206;2022-09-28T13:00:34;13.20;99.90
8684;DHT22;4379;59.744;18.206;2022-09-28T13:19:45;13.10;99.90
8684;DHT22;4379;59.744;18.206;2022-09-28T13:25:15;13.20;99.90
8684;DHT22;4379;59.744;18.206;2022-09-28T13:27:52;13.20;99.90
8684;DHT22;4379;59.744;18.206;2022-09-28T13:30:21;12.90;99.90
8684;DHT22;4379;59.744;18.206;2022-09-28T13:32:49;12.80;99.90
8684;DHT22;4379;59.744;18.206;2022-09-28T13:35:17;12.50;99.90
8684;DHT22;4379;59.744;18.206;2022-09-28T13:46:30;12.20;99.90
8684;DHT22;4379;59.744;18.206;2022-09-28T13:52:12;12.60;99.90
8684;DHT22;4379;59.744;18.206;2022-09-28T13:57:51;12.60;99.90
8684;DHT22;4379;59.744;18.206;2022-09-28T14:00:28;12.90;99.90
8684;DHT22;4379;59.744;18.206;2022-09-28T14:06:04;13.10;99.90
8684;DHT22;4379;59.744;18.206;2022-09-28T14:08:42;12.90;99.90
8684;DHT22;4379;59.744;18.206;2022-09-28T14:14:04;12.60;99.90
8684;DHT22;4379;59.744;18.206;2022-09-28T14:16:33;12.50;99.90
8684;DHT22;4379;59.744;18.206;2022-09-28T14:19:20;12.70;99.90
8684;DHT22;4379;59.744;18.206;2022-09-28T14:32:49;12.30;99.90
8684;DHT22;4379;59.744;18.206;2022-09-28T14:35:33;12.20;99.90
8684;DHT22;4379;59.744;18.206;2022-09-28T14:38:27;12.10;99.90
8684;DHT22;4379;59.744;18.206;2022-09-28T14:48:57;11.90;99.90
8684;DHT22;4379;59.744;18.206;2022-09-28T14:54:02;12.00;99.90
8684;DHT22;4379;59.744;18.206;2022-09-28T14:56:37;11.80;99.90
8684;DHT22;4379;59.744;18.206;2022-09-28T14:59:06;11.90;99.90
8684;DHT22;4379;59.744;18.206;2022-09-28T15:01:37;11.80;99.90
8684;DHT22;4379;59.744;18.206;2022-09-28T15:04:08;11.90;99.90
8684;DHT22;4379;59.744;18.206;2022-09-28T15:06:48;11.80;99.90
8684;DHT22;4379;59.744;18.206;2022-09-28T15:09:46;11.70;99.90
8684;DHT22;4379;59.744;18.206;2022-09-28T15:12:16;11.70;99.90
8684;DHT22;4379;59.744;18.206;2022-09-28T15:17:26;11.70;99.90
8684;DHT22;4379;59.744;18.206;2022-09-28T15:20:34;11.70;99.90
8684;DHT22;4379;59.744;18.206;2022-09-28T15:23:03;11.70;99.90
8684;DHT22;4379;59.744;18.206;2022-09-28T15:25:31;11.60;99.90
8684;DHT22;4379;59.744;18.206;2022-09-28T15:28:01;11.60;99.90
8684;DHT22;4379;59.744;18.206;2022-09-28T15:30:39;11.60;99.90
8684;DHT22;4379;59.744;18.206;2022-09-28T15:38:59;11.50;99.90
8684;DHT22;4379;59.744;18.206;2022-09-28T15:41:27;11.50;99.90
8684;DHT22;4379;59.744;18.206;2022-09-28T15:44:28;11.50;99.90
8684;DHT22;4379;59.744;18.206;2022-09-28T15:54:50;11.10;99.90
8684;DHT22;4379;59.744;18.206;2022-09-28T16:00:00;11.20;99.90
8684;DHT22;4379;59.744;18.206;2022-09-28T16:02:27;11.20;99.90
8684;DHT22;4379;59.744;18.206;2022-09-28T16:04:58;11.20;99.90
8684;DHT22;4379;59.744;18.206;2022-09-28T16:07:39;11.20;99.90
8684;DHT22;4379;59.744;18.206;2022-09-28T16:13:19;11.10;99.90
8684;DHT22;4379;59.744;18.206;2022-09-28T16:15:53;11.00;99.90
8684;DHT22;4379;59.744;18.206;2022-09-28T16:18:25;11.00;99.90
8684;DHT22;4379;59.744;18.206;2022-09-28T16:21:24;11.00;99.90
8684;DHT22;4379;59.744;18.206;2022-09-28T16:23:53;10.90;99.90
8684;DHT22;4379;59.744;18.206;2022-09-28T16:26:40;10.90;99.90
8684;DHT22;4379;59.744;18.206;2022-09-28T16:29:27;10.90;99.90
8684;DHT22;4379;59.744;18.206;2022-09-28T16:35:22;10.70;99.90
8684;DHT22;4379;59.744;18.206;2022-09-28T16:38:00;10.60;99.90
8684;DHT22;4379;59.744;18.206;2022-09-28T16:40:27;10.40;99.90
8684;DHT22;4379;59.744;18.206;2022-09-28T16:42:57;10.40;99.90
8684;DHT22;4379;59.744;18.206;2022-09-28T16:45:25;10.30;99.90
8684;DHT22;4379;59.744;18.206;2022-09-28T16:47:55;10.30;99.90
8684;DHT22;4379;59.744;18.206;2022-09-28T16:50:24;10.30;99.90
8684;DHT22;4379;59.744;18.206;2022-09-28T16:53:02;10.20;99.90
8684;DHT22;4379;59.744;18.206;2022-09-28T16:55:50;10.30;99.90
8684;DHT22;4379;59.744;18.206;2022-09-28T16:58:17;10.30;99.90
8684;DHT22;4379;59.744;18.206;2022-09-28T17:00:45;10.30;99.90
8684;DHT22;4379;59.744;18.206;2022-09-28T17:03:14;10.30;99.90
8684;DHT22;4379;59.744;18.206;2022-09-28T17:05:42;10.20;99.90
8684;DHT22;4379;59.744;18.206;2022-09-28T17:08:12;10.20;99.90
8684;DHT22;4379;59.744;18.206;2022-09-28T17:10:53;10.20;99.90
8684;DHT22;4379;59.744;18.206;2022-09-28T17:13:41;10.30;99.90
8684;DHT22;4379;59.744;18.206;2022-09-28T17:16:14;10.20;99.90
8684;DHT22;4379;59.744;18.206;2022-09-28T17:18:44;10.20;99.90
8684;DHT22;4379;59.744;18.206;2022-09-28T17:21:17;10.10;99.90
8684;DHT22;4379;59.744;18.206;2022-09-28T17:23:46;10.00;99.90
8684;DHT22;4379;59.744;18.206;2022-09-28T17:26:24;10.00;99.90
8684;DHT22;4379;59.744;18.206;2022-09-28T17:28:57;10.00;99.90
8684;DHT22;4379;59.744;18.206;2022-09-28T17:31:25;10.00;99.90
8684;DHT22;4379;59.744;18.206;2022-09-28T17:33:52;9.90;99.90
8684;DHT22;4379;59.744;18.206;2022-09-28T17:36:21;9.80;99.90
8684;DHT22;4379;59.744;18.206;2022-09-28T17:39:13;9.60;99.90
8684;DHT22;4379;59.744;18.206;2022-09-28T17:41:41;9.70;99.90
8684;DHT22;4379;59.744;18.206;2022-09-28T17:44:09;9.70;99.90
8684;DHT22;4379;59.744;18.206;2022-09-28T17:46:45;9.70;99.90
8684;DHT22;4379;59.744;18.206;2022-09-28T17:49:15;9.60;99.90
8684;DHT22;4379;59.744;18.206;2022-09-28T17:51:42;9.60;99.90
8684;DHT22;4379;59.744;18.206;2022-09-28T17:54:12;9.60;99.90
8684;DHT22;4379;59.744;18.206;2022-09-28T17:56:42;9.40;99.90
8684;DHT22;4379;59.744;18.206;2022-09-28T17:59:12;9.40;99.90
8684;DHT22;4379;59.744;18.206;2022-09-28T18:01:40;9.40;99.90
8684;DHT22;4379;59.744;18.206;2022-09-28T18:04:09;9.40;99.90
8684;DHT22;4379;59.744;18.206;2022-09-28T18:06:49;9.30;99.90
8684;DHT22;4379;59.744;18.206;2022-09-28T18:09:17;9.10;99.90
8684;DHT22;4379;59.744;18.206;2022-09-28T18:11:57;9.00;99.90
8684;DHT22;4379;59.744;18.206;2022-09-28T18:14:26;9.00;99.90
8684;DHT22;4379;59.744;18.206;2022-09-28T18:16:54;8.90;99.90
8684;DHT22;4379;59.744;18.206;2022-09-28T18:19:21;8.90;99.90
8684;DHT22;4379;59.744;18.206;2022-09-28T18:21:49;8.90;99.90
8684;DHT22;4379;59.744;18.206;2022-09-28T18:24:16;8.70;99.90
8684;DHT22;4379;59.744;18.206;2022-09-28T18:26:44;8.70;99.90
8684;DHT22;4379;59.744;18.206;2022-09-28T18:29:11;8.60;99.90
8684;DHT22;4379;59.744;18.206;2022-09-28T18:31:38;8.50;99.90
8684;DHT22;4379;59.744;18.206;2022-09-28T18:34:06;8.50;99.90
8684;DHT22;4379;59.744;18.206;2022-09-28T18:36:34;8.40;99.90
8684;DHT22;4379;59.744;18.206;2022-09-28T18:39:02;8.30;99.90
8684;DHT22;4379;59.744;18.206;2022-09-28T18:41:31;8.20;99.90
8684;DHT22;4379;59.744;18.206;2022-09-28T18:44:00;8.20;99.90
8684;DHT22;4379;59.744;18.206;2022-09-28T18:46:32;8.20;99.90
8684;DHT22;4379;59.744;18.206;2022-09-28T18:49:04;8.10;99.90
8684;DHT22;4379;59.744;18.206;2022-09-28T18:51:34;8.00;99.90
8684;DHT22;4379;59.744;18.206;2022-09-28T18:54:04;8.00;99.90
8684;DHT22;4379;59.744;18.206;2022-09-28T18:56:35;8.20;99.90
8684;DHT22;4379;59.744;18.206;2022-09-28T18:59:07;8.20;99.90
8684;DHT22;4379;59.744;18.206;2022-09-28T19:01:38;8.30;99.90
8684;DHT22;4379;59.744;18.206;2022-09-28T19:04:09;8.30;99.90
8684;DHT22;4379;59.744;18.206;2022-09-28T19:06:38;8.40;99.90
8684;DHT22;4379;59.744;18.206;2022-09-28T19:09:09;8.40;99.90
8684;DHT22;4379;59.744;18.206;2022-09-28T19:11:36;8.40;99.90
8684;DHT22;4379;59.744;18.206;2022-09-28T19:14:04;8.50;99.90
8684;DHT22;4379;59.744;18.206;2022-09-28T19:16:31;8.60;99.90
8684;DHT22;4379;59.744;18.206;2022-09-28T19:19:00;8.60;99.90
8684;DHT22;4379;59.744;18.206;2022-09-28T19:21:29;8.60;99.90
8684;DHT22;4379;59.744;18.206;2022-09-28T19:23:59;8.60;99.90
8684;DHT22;4379;59.744;18.206;2022-09-28T19:26:28;8.50;99.90
8684;DHT22;4379;59.744;18.206;2022-09-28T19:28:57;8.50;99.90
8684;DHT22;4379;59.744;18.206;2022-09-28T19:31:28;8.60;99.90
8684;DHT22;4379;59.744;18.206;2022-09-28T19:33:57;8.60;99.90
8684;DHT22;4379;59.744;18.206;2022-09-28T19:36:25;8.60;99.90
8684;DHT22;4379;59.744;18.206;2022-09-28T19:38:58;8.60;99.90
8684;DHT22;4379;59.744;18.206;2022-09-28T19:41:34;8.60;99.90
8684;DHT22;4379;59.744;18.206;2022-09-28T19:44:23;8.70;99.90
8684;DHT22;4379;59.744;18.206;2022-09-28T19:46:58;8.70;99.90
8684;DHT22;4379;59.744;18.206;2022-09-28T19:49:27;8.80;99.90
8684;DHT22;4379;59.744;18.206;2022-09-28T19:52:00;8.70;99.90
8684;DHT22;4379;59.744;18.206;2022-09-28T19:54:47;8.80;99.90
8684;DHT22;4379;59.744;18.206;2022-09-28T19:57:25;8.90;99.90
8684;DHT22;4379;59.744;18.206;2022-09-28T19:59:58;8.90;99.90
8684;DHT22;4379;59.744;18.206;2022-09-28T20:02:29;8.90;99.90
8684;DHT22;4379;59.744;18.206;2022-09-28T20:04:57;8.90;99.90
8684;DHT22;4379;59.744;18.206;2022-09-28T20:07:25;9.00;99.90